Aérodrome :
LOGIN :

S'inscrire | Disclaimer

   EN    FR    IT 

 










Légende :    VFR   VFR Marginal   IFR   IFR Intensif   IFR Très Intensif
Visi : 
Plafond : 
>= 8 km
>= 3000ft
5 à 8 km
1000 à 3000 ft
1500m à 5 km
500 à 1000 ft
800 à 1500m
200 à 500 ft
< 800m
< 200 ft
Symboles :   Orages  Brouillard  Fortes neiges  Fortes précipitations  Vent > 20 kt
SIGMETs :   Divers  Orages  Givrage  Turbulence  Onde Orograph.  Cendres Volcan.







- Altitude de l'aérodrome : 128 ft


ETND - Diepholz

DERNIER METAR :
  • 181020Z 11005KT 0900 FG OVC002 13/13 Q1015 AMB

METARs EXPIRÉS :
  • 180959Z 12005KT 0800 FG FEW001 OVC002 12/12 Q1015 AMB
  • 180920Z 09004KT 0700 FG FEW001 OVC002 12/12 Q1014 RED
  • 180909Z 09005KT 1400 VCFG BR SCT002 BKN003 12/12 Q1014 AMB
  • 180903Z 10005KT 2900 BR FEW002 BKN004 12/12 Q1014 YLO
  • 180843Z 10005KT 7000 BKN005 12/12 Q1015 YLO
  • 180820Z 10005KT 8000 BKN006 BKN250 12/11 Q1015 YLO
  • 180809Z 09004KT 8000 SCT048 BKN250 12/11 Q1015 BLU+

Prévision TAF périmée.
Pas de NOTAMs connus pour ce terrain.



MET'MAP, la Météo Aéronautique d'un coup d'oeil ! - Copyright ORBIFLY Décembre 2007 - Disclaimer

ORBIFLY MET'MAP TEAM :

Programmation & Développement : Alexandra Zaïnal
Conception & Développement : Baudouin d'Aumeries
Co-Programmation & Développement : Marc-Olivier Méhu
Soutien technique & logistique : Manuel Goepfert

Contact : metmap@orbifly.com




SOURCES & CREDITS :

   NOAA